Time;durP1;ratioP1;P1;durP2;ratioP2;P2;SDS_P1;SDS_P2;PMS_P1;PMS_P2;Temp;Humidity;BMP_temperature;BMP_pressure;BME280_temperature;BME280_humidity;BME280_pressure;Samples;Min_cycle;Max_cycle;Signal;HPM_P1;HPM_P2
2021/03/19 00:01:27;;;;;;;12.32;8.88;;;11.70;67.20;;;;;;4988976;28;20034;-88
2021/03/19 00:03:53;;;;;;;15.20;9.63;;;11.70;67.20;;;;;;4988073;28;20430;-89
2021/03/19 00:06:19;;;;;;;14.48;9.30;;;11.70;67.30;;;;;;4955421;28;20089;-87
2021/03/19 00:08:45;;;;;;;12.32;10.05;;;11.70;67.30;;;;;;4987694;28;20038;-88
2021/03/19 00:11:12;;;;;;;11.27;9.27;;;11.60;67.10;;;;;;4988143;28;20433;-85
2021/03/19 00:13:38;;;;;;;10.73;8.75;;;11.70;67.40;;;;;;4982086;28;20038;-85
2021/03/19 00:16:04;;;;;;;11.02;8.48;;;11.60;67.20;;;;;;5006605;28;20052;-84
2021/03/19 00:18:31;;;;;;;10.27;7.80;;;11.60;67.30;;;;;;5005362;28;20489;-85
2021/03/19 00:20:57;;;;;;;11.27;9.20;;;11.60;67.30;;;;;;4989614;28;20032;-84
2021/03/19 00:23:23;;;;;;;13.55;9.15;;;11.60;67.30;;;;;;4990651;28;20133;-84
2021/03/19 00:25:49;;;;;;;13.73;8.88;;;11.60;67.30;;;;;;4989262;28;20037;-84
2021/03/19 00:28:15;;;;;;;11.38;7.38;;;11.60;67.40;;;;;;4987620;28;20132;-84
2021/03/19 00:30:46;;;;;;;12.20;9.27;;;11.60;67.40;;;;;;4988258;28;20279;-86
2021/03/19 00:33:13;;;;;;;14.68;8.50;;;11.60;67.40;;;;;;5000071;28;20422;-85
2021/03/19 00:35:40;;;;;;;12.43;8.95;;;11.50;67.20;;;;;;4987297;28;20045;-87
2021/03/19 00:38:08;;;;;;;12.95;9.40;;;11.50;67.30;;;;;;4986848;28;20031;-88
2021/03/19 00:40:35;;;;;;;14.05;9.13;;;11.50;67.30;;;;;;4987185;28;20068;-86
2021/03/19 00:43:01;;;;;;;12.88;8.85;;;11.50;67.30;;;;;;4971029;28;20097;-87
2021/03/19 00:45:28;;;;;;;13.57;9.10;;;11.50;67.40;;;;;;4989792;28;20120;-86
2021/03/19 00:47:54;;;;;;;12.98;8.20;;;11.50;67.40;;;;;;5007623;28;20034;-87
2021/03/19 00:50:37;;;;;;;10.48;9.35;;;11.50;67.40;;;;;;4987018;28;20034;-87
2021/03/19 00:53:04;;;;;;;10.70;8.98;;;11.50;67.50;;;;;;4986888;28;20022;-89
2021/03/19 00:55:30;;;;;;;12.55;8.85;;;11.50;67.40;;;;;;4986804;28;20544;-88
2021/03/19 00:57:56;;;;;;;10.10;8.55;;;11.50;67.50;;;;;;4986759;28;20030;-89
2021/03/19 01:00:24;;;;;;;13.55;8.57;;;11.50;67.50;;;;;;4986502;28;20527;-87
2021/03/19 01:02:50;;;;;;;10.45;9.18;;;11.50;67.50;;;;;;4986605;28;20445;-90
2021/03/19 01:05:23;;;;;;;8.68;7.78;;;11.50;67.60;;;;;;4970619;28;20254;-86
2021/03/19 01:07:50;;;;;;;10.80;8.57;;;11.40;67.50;;;;;;4987665;28;20034;-86
2021/03/19 01:10:25;;;;;;;11.18;7.95;;;11.40;67.50;;;;;;4987936;28;20347;-87
2021/03/19 01:12:51;;;;;;;15.30;9.40;;;11.40;67.50;;;;;;4989273;28;20397;-88
2021/03/19 01:15:19;;;;;;;13.68;9.68;;;11.40;67.40;;;;;;5000203;28;20041;-86
2021/03/19 01:17:45;;;;;;;8.90;8.00;;;11.40;67.50;;;;;;5008426;28;20133;-85
2021/03/19 01:20:14;;;;;;;10.40;7.55;;;11.40;67.50;;;;;;5015322;28;20065;-84
2021/03/19 01:22:40;;;;;;;10.10;7.88;;;11.40;67.60;;;;;;4996128;28;20038;-85
2021/03/19 01:25:09;;;;;;;11.32;7.78;;;11.40;67.60;;;;;;5020005;23;20106;-63
2021/03/19 01:27:36;;;;;;;8.75;6.85;;;11.40;67.60;;;;;;4985689;28;20489;-63
2021/03/19 01:30:06;;;;;;;8.95;6.65;;;11.40;67.60;;;;;;4986287;28;20493;-63
2021/03/19 01:32:33;;;;;;;7.97;6.43;;;11.40;67.70;;;;;;4987041;28;20050;-63
2021/03/19 01:34:59;;;;;;;12.32;7.10;;;11.40;67.70;;;;;;4987172;28;20668;-63
2021/03/19 01:37:27;;;;;;;9.15;7.18;;;11.40;67.70;;;;;;4987419;28;20211;-63
2021/03/19 01:39:53;;;;;;;8.25;6.38;;;11.40;67.70;;;;;;4986484;28;20045;-63
2021/03/19 01:42:20;;;;;;;8.80;6.68;;;11.40;67.70;;;;;;4986672;28;20105;-63
2021/03/19 01:45:08;;;;;;;9.18;6.28;;;11.40;67.70;;;;;;4985313;28;20030;-64
2021/03/19 01:48:12;;;;;;;8.35;6.25;;;11.40;67.70;;;;;;4986970;28;20225;-64
2021/03/19 01:51:15;;;;;;;7.78;5.90;;;11.40;67.70;;;;;;4986772;28;20026;-63
2021/03/19 01:54:19;;;;;;;6.37;5.50;;;11.40;67.60;;;;;;4986409;28;20045;-63
2021/03/19 01:57:24;;;;;;;7.50;5.57;;;11.40;67.60;;;;;;4986605;28;20084;-64
2021/03/19 02:00:27;;;;;;;8.32;5.40;;;11.40;67.60;;;;;;4986251;28;20378;-64
2021/03/19 02:03:31;;;;;;;6.97;5.45;;;11.40;67.60;;;;;;4986024;28;20093;-64
2021/03/19 02:06:35;;;;;;;6.43;5.70;;;11.40;67.60;;;;;;4986348;28;20474;-64
2021/03/19 02:09:39;;;;;;;6.80;5.33;;;11.40;67.60;;;;;;4985035;28;20042;-64
2021/03/19 02:12:42;;;;;;;12.18;5.70;;;11.40;67.60;;;;;;4986617;28;20089;-63
2021/03/19 02:15:46;;;;;;;6.68;5.20;;;11.40;67.60;;;;;;4948002;28;20046;-64
2021/03/19 02:18:50;;;;;;;6.47;5.20;;;11.40;67.70;;;;;;4949830;28;20376;-63
2021/03/19 02:21:57;;;;;;;8.30;5.97;;;11.40;67.70;;;;;;4986095;28;20027;-63
2021/03/19 02:25:01;;;;;;;6.47;5.65;;;11.40;67.70;;;;;;4979043;28;20121;-63
2021/03/19 02:28:05;;;;;;;8.85;6.18;;;11.40;67.70;;;;;;4986159;28;20042;-63
2021/03/19 02:31:09;;;;;;;6.13;5.43;;;11.40;67.70;;;;;;4981191;28;20435;-64
2021/03/19 02:33:41;;;;;;;8.27;5.75;;;11.40;67.70;;;;;;4987151;28;20097;-71
2021/03/19 02:36:08;;;;;;;11.68;6.97;;;11.40;67.60;;;;;;4986540;28;20198;-71
2021/03/19 02:38:34;;;;;;;7.78;6.40;;;11.40;67.70;;;;;;4986806;28;20049;-71
2021/03/19 02:41:01;;;;;;;8.18;6.85;;;11.40;67.70;;;;;;4986172;28;20466;-71
2021/03/19 02:43:28;;;;;;;8.43;6.25;;;11.40;67.70;;;;;;4986884;28;20053;-72
2021/03/19 02:45:54;;;;;;;12.48;6.60;;;11.50;67.90;;;;;;5003474;23;20030;-84
2021/03/19 02:48:20;;;;;;;8.73;6.72;;;11.40;67.70;;;;;;5024598;28;20042;-84
2021/03/19 02:50:47;;;;;;;9.65;6.88;;;11.50;67.90;;;;;;5039180;28;20030;-84
2021/03/19 02:53:18;;;;;;;7.43;6.50;;;11.50;67.90;;;;;;5008659;28;20037;-84
2021/03/19 02:55:45;;;;;;;9.07;7.10;;;11.50;67.90;;;;;;5043074;28;20030;-86
2021/03/19 02:58:11;;;;;;;8.23;7.20;;;11.50;67.90;;;;;;5011949;28;20029;-85
2021/03/19 03:00:38;;;;;;;8.63;7.72;;;11.50;67.90;;;;;;5036263;28;20034;-89
2021/03/19 03:03:05;;;;;;;9.68;8.15;;;11.50;67.90;;;;;;4998351;28;20050;-91
2021/03/19 03:05:31;;;;;;;9.15;7.55;;;11.50;67.90;;;;;;5010328;28;20489;-84
2021/03/19 03:07:57;;;;;;;9.25;7.25;;;11.50;67.90;;;;;;5010087;28;20034;-84
2021/03/19 03:10:25;;;;;;;9.80;8.15;;;11.50;67.90;;;;;;5035950;23;20064;-85
2021/03/19 03:12:52;;;;;;;9.48;7.13;;;11.60;68.10;;;;;;5043169;28;20029;-90
2021/03/19 03:15:19;;;;;;;11.90;7.60;;;11.50;67.90;;;;;;5045238;28;20060;-85
2021/03/19 03:17:47;;;;;;;10.70;8.25;;;11.50;67.90;;;;;;5040493;28;20048;-89
2021/03/19 03:20:35;;;;;;;10.15;8.13;;;11.50;68.00;;;;;;5034982;28;20040;-87
2021/03/19 03:23:02;;;;;;;9.23;7.82;;;11.60;68.10;;;;;;5032962;28;20048;-83
2021/03/19 03:25:28;;;;;;;8.77;7.75;;;11.60;68.10;;;;;;5033948;28;20029;-83
2021/03/19 03:27:54;;;;;;;8.90;8.00;;;11.60;68.10;;;;;;5034005;28;20112;-84
2021/03/19 03:30:33;;;;;;;10.25;8.80;;;11.60;68.10;;;;;;5033857;28;20053;-84
2021/03/19 03:33:00;;;;;;;9.52;8.45;;;11.60;68.10;;;;;;5032483;28;20036;-82
2021/03/19 03:35:26;;;;;;;9.95;8.90;;;11.60;68.10;;;;;;5033026;28;20033;-82
2021/03/19 03:37:54;;;;;;;11.07;9.02;;;11.60;68.10;;;;;;5032418;28;20372;-86
2021/03/19 03:40:29;;;;;;;12.32;8.45;;;11.60;68.10;;;;;;5032340;28;20034;-82
2021/03/19 03:42:55;;;;;;;9.95;8.93;;;11.60;68.20;;;;;;5033344;28;20041;-82
2021/03/19 03:45:21;;;;;;;10.07;8.93;;;11.60;68.10;;;;;;5012465;28;20033;-83
2021/03/19 03:47:47;;;;;;;10.50;8.93;;;11.60;68.10;;;;;;5029003;28;20032;-83
2021/03/19 03:50:18;;;;;;;10.13;9.10;;;11.60;68.10;;;;;;5029263;28;20029;-84
2021/03/19 03:52:43;;;;;;;12.90;9.32;;;11.60;68.10;;;;;;5013074;28;20599;-82
2021/03/19 03:55:10;;;;;;;11.55;9.75;;;11.60;68.10;;;;;;5012939;28;20030;-85
2021/03/19 03:57:36;;;;;;;11.32;9.93;;;11.60;68.10;;;;;;5029523;28;20038;-83
2021/03/19 04:00:11;;;;;;;10.98;9.48;;;11.60;68.70;;;;;;5012817;28;20445;-87
2021/03/19 04:02:38;;;;;;;12.35;9.68;;;11.60;68.20;;;;;;5029067;28;20042;-86
2021/03/19 04:05:06;;;;;;;11.50;9.48;;;11.60;68.20;;;;;;5029130;28;20215;-86
2021/03/19 04:07:32;;;;;;;10.38;9.25;;;11.60;68.20;;;;;;5028603;28;20061;-82
2021/03/19 04:09:58;;;;;;;11.40;10.30;;;11.60;68.20;;;;;;5012597;28;20060;-89
2021/03/19 04:12:25;;;;;;;11.35;10.18;;;11.60;68.20;;;;;;5016844;28;20038;-83
2021/03/19 04:14:51;;;;;;;10.43;9.32;;;11.60;68.30;;;;;;5031848;28;20025;-84
2021/03/19 04:17:29;;;;;;;14.77;10.30;;;11.60;68.20;;;;;;5032394;28;20041;-84
2021/03/19 04:19:57;;;;;;;11.60;10.23;;;11.60;68.30;;;;;;5015227;28;20060;-86
2021/03/19 04:22:23;;;;;;;11.75;9.48;;;11.60;68.30;;;;;;5032768;28;20338;-84
2021/03/19 04:24:49;;;;;;;11.52;9.98;;;11.60;68.30;;;;;;5032959;28;20030;-83
2021/03/19 04:27:20;;;;;;;12.77;11.48;;;11.60;68.30;;;;;;5031578;28;20033;-82
2021/03/19 04:29:47;;;;;;;12.02;10.05;;;11.60;68.40;;;;;;5031940;28;20124;-82
2021/03/19 04:32:14;;;;;;;12.13;10.82;;;11.50;68.20;;;;;;5014786;28;20060;-82
2021/03/19 04:34:41;;;;;;;12.48;10.13;;;11.50;68.20;;;;;;5031153;28;20030;-83
2021/03/19 04:37:08;;;;;;;13.93;10.30;;;11.50;68.30;;;;;;5031556;28;20034;-82
2021/03/19 04:39:40;;;;;;;12.18;10.98;;;11.50;68.30;;;;;;5031532;28;20124;-83
2021/03/19 04:42:07;;;;;;;11.57;10.18;;;11.50;68.30;;;;;;5031411;28;20033;-83
2021/03/19 04:44:37;;;;;;;12.18;10.85;;;11.50;68.30;;;;;;5032454;28;20041;-81
2021/03/19 04:47:05;;;;;;;12.00;10.75;;;11.50;68.40;;;;;;5030938;28;20494;-82
2021/03/19 04:49:31;;;;;;;10.73;9.65;;;11.50;68.40;;;;;;5032044;28;20029;-82
2021/03/19 04:51:58;;;;;;;13.32;11.50;;;11.50;68.50;;;;;;5032292;28;20030;-83
2021/03/19 04:54:24;;;;;;;12.05;10.75;;;11.40;68.30;;;;;;5014651;28;20038;-84
2021/03/19 04:56:50;;;;;;;10.43;9.32;;;11.50;68.50;;;;;;5031925;28;20105;-85
2021/03/19 04:59:16;;;;;;;13.30;11.90;;;11.50;68.60;;;;;;5014622;28;20025;-84
2021/03/19 05:02:01;;;;;;;12.32;10.30;;;11.50;68.60;;;;;;5030629;28;20488;-83
2021/03/19 05:04:28;;;;;;;12.32;11.05;;;11.40;68.50;;;;;;5032111;28;20473;-84
2021/03/19 05:07:07;;;;;;;11.07;9.68;;;11.40;68.50;;;;;;5031772;28;20032;-83
2021/03/19 05:09:33;;;;;;;13.27;11.65;;;11.40;68.60;;;;;;5032189;28;20454;-82
2021/03/19 05:12:01;;;;;;;12.57;11.32;;;11.40;68.50;;;;;;5030907;28;20057;-83
2021/03/19 05:14:27;;;;;;;12.20;10.55;;;11.40;68.60;;;;;;5010101;28;20551;-82
2021/03/19 05:16:54;;;;;;;12.73;11.35;;;11.40;68.60;;;;;;5010897;28;20084;-83
2021/03/19 05:19:20;;;;;;;12.32;11.13;;;11.40;68.60;;;;;;5012089;28;20030;-84
2021/03/19 05:21:47;;;;;;;12.88;11.57;;;11.40;68.60;;;;;;5010483;28;20049;-84
2021/03/19 05:24:14;;;;;;;11.88;10.70;;;11.30;68.50;;;;;;5012252;28;20030;-84
2021/03/19 05:26:40;;;;;;;12.55;11.27;;;11.40;68.70;;;;;;5026876;28;20026;-83
2021/03/19 05:29:11;;;;;;;12.27;11.07;;;11.30;68.60;;;;;;5011795;28;20041;-86
2021/03/19 05:31:38;;;;;;;12.38;11.13;;;11.30;68.60;;;;;;5012250;28;20037;-84
2021/03/19 05:34:04;;;;;;;11.10;9.90;;;11.30;68.60;;;;;;5027324;28;20029;-85
2021/03/19 05:36:31;;;;;;;12.23;10.68;;;11.30;68.60;;;;;;5011775;28;20045;-85
2021/03/19 05:38:58;;;;;;;12.02;10.57;;;11.30;68.70;;;;;;5010638;28;20036;-86
2021/03/19 05:41:27;;;;;;;11.05;10.00;;;11.30;68.70;;;;;;5027196;28;20034;-86
2021/03/19 05:44:01;;;;;;;12.38;10.15;;;11.30;68.70;;;;;;5012103;28;20069;-84
2021/03/19 05:46:31;;;;;;;11.00;9.85;;;11.20;68.60;;;;;;5011893;28;20022;-84
2021/03/19 05:49:01;;;;;;;11.90;10.20;;;11.20;68.60;;;;;;5006211;28;20048;-85
2021/03/19 05:51:38;;;;;;;10.05;9.02;;;11.20;68.60;;;;;;5006974;28;20497;-86
2021/03/19 05:54:28;;;;;;;11.90;10.45;;;11.20;68.70;;;;;;4990563;28;20034;-84
2021/03/19 05:57:00;;;;;;;10.40;9.20;;;11.20;68.70;;;;;;5006638;28;20033;-83
2021/03/19 05:59:28;;;;;;;12.68;9.80;;;11.20;68.70;;;;;;5025299;28;20450;-84
2021/03/19 06:01:54;;;;;;;10.00;9.00;;;11.20;68.70;;;;;;5026577;28;20033;-87
2021/03/19 06:04:23;;;;;;;9.95;9.02;;;11.20;68.70;;;;;;5008315;28;20446;-87
2021/03/19 06:07:02;;;;;;;8.80;8.00;;;11.20;68.70;;;;;;5007181;28;20038;-89
2021/03/19 06:09:34;;;;;;;9.77;8.80;;;11.20;68.80;;;;;;5023259;28;20037;-89
2021/03/19 06:12:13;;;;;;;9.93;8.93;;;11.20;68.80;;;;;;5025424;28;20045;-88
2021/03/19 06:14:56;;;;;;;10.63;8.70;;;11.20;68.80;;;;;;5026135;28;20025;-86
2021/03/19 06:17:57;;;;;;;8.88;8.07;;;11.20;68.90;;;;;;5024611;28;20026;-85
2021/03/19 06:20:24;;;;;;;8.38;7.57;;;11.20;68.80;;;;;;5012677;28;20042;-85
2021/03/19 06:23:04;;;;;;;8.25;7.45;;;11.10;68.60;;;;;;5026758;28;20042;-89
2021/03/19 06:25:58;;;;;;;7.65;6.93;;;11.10;68.70;;;;;;5026266;28;20110;-87
2021/03/19 06:28:35;;;;;;;7.18;6.47;;;11.10;68.90;;;;;;5019483;28;20032;-85
2021/03/19 06:31:31;;;;;;;9.75;7.40;;;11.10;68.90;;;;;;5024821;28;20112;-83
2021/03/19 06:34:06;;;;;;;7.43;6.68;;;11.20;69.20;;;;;;5011432;28;20431;-87
2021/03/19 06:36:58;;;;;;;9.88;6.25;;;11.20;69.10;;;;;;5027016;28;20026;-85
2021/03/19 06:39:31;;;;;;;6.78;6.18;;;11.20;69.10;;;;;;5023527;28;20408;-85
2021/03/19 06:42:02;;;;;;;7.15;6.20;;;11.20;69.10;;;;;;5027870;28;20433;-88
2021/03/19 06:44:29;;;;;;;6.18;5.50;;;11.20;69.20;;;;;;5012108;28;20144;-87
2021/03/19 06:47:02;;;;;;;5.82;5.22;;;11.20;69.20;;;;;;5026571;28;20139;-86
2021/03/19 06:49:29;;;;;;;6.83;5.97;;;11.10;69.10;;;;;;5025862;28;20415;-85
2021/03/19 06:52:23;;;;;;;6.40;5.78;;;11.20;69.30;;;;;;5028690;28;20417;-87
2021/03/19 06:55:01;;;;;;;5.20;4.70;;;11.20;69.40;;;;;;5027775;28;20071;-83
2021/03/19 06:57:42;;;;;;;6.05;5.45;;;11.20;69.40;;;;;;5029026;28;20029;-87
2021/03/19 07:00:12;;;;;;;5.95;5.35;;;11.20;69.30;;;;;;5012747;28;20491;-85
2021/03/19 07:02:51;;;;;;;4.95;4.50;;;11.20;69.40;;;;;;5028336;28;20378;-89
2021/03/19 07:05:42;;;;;;;5.55;5.05;;;11.20;69.80;;;;;;5027886;28;20068;-84
2021/03/19 07:08:52;;;;;;;5.60;5.00;;;11.20;70.30;;;;;;5028072;28;20128;-85
2021/03/19 07:11:49;;;;;;;8.15;5.57;;;11.40;71.10;;;;;;5013092;28;20056;-84
2021/03/19 07:14:40;;;;;;;5.18;4.65;;;11.50;71.40;;;;;;5016877;28;20029;-83
2021/03/19 07:17:21;;;;;;;6.72;5.55;;;11.70;71.80;;;;;;5031796;28;20026;-86
2021/03/19 07:20:02;;;;;;;5.40;4.93;;;11.80;71.90;;;;;;5027958;28;20025;-82
2021/03/19 07:22:57;;;;;;;4.47;4.07;;;12.00;72.40;;;;;;5025638;28;20428;-88
2021/03/19 07:25:36;;;;;;;5.30;4.80;;;12.10;72.50;;;;;;5015694;28;20030;-88
2021/03/19 07:28:24;;;;;;;6.93;5.38;;;12.20;72.50;;;;;;5032573;28;20033;-86
2021/03/19 07:31:07;;;;;;;6.85;5.25;;;12.20;72.30;;;;;;5012694;28;20462;-86
2021/03/19 07:33:39;;;;;;;5.38;4.88;;;12.30;72.40;;;;;;5034209;28;20034;-83
2021/03/19 07:36:17;;;;;;;5.45;4.95;;;12.40;72.40;;;;;;5031096;28;20057;-83
2021/03/19 07:39:13;;;;;;;5.05;4.55;;;12.50;72.50;;;;;;5007660;28;20125;-81
2021/03/19 07:41:57;;;;;;;5.38;4.88;;;12.50;72.30;;;;;;5024533;28;20050;-83
2021/03/19 07:44:26;;;;;;;5.47;4.15;;;12.60;72.30;;;;;;5001724;28;20033;-82
2021/03/19 07:47:31;;;;;;;4.32;3.97;;;12.60;72.10;;;;;;5027430;28;20392;-84
2021/03/19 07:50:19;;;;;;;5.18;4.22;;;12.60;72.10;;;;;;5007145;28;20034;-84
2021/03/19 07:53:02;;;;;;;3.90;3.50;;;12.60;72.00;;;;;;5016525;28;20029;-89
2021/03/19 07:55:48;;;;;;;4.57;4.18;;;12.60;71.90;;;;;;5011971;28;20037;-87
2021/03/19 07:58:51;;;;;;;5.13;3.80;;;12.60;71.80;;;;;;5029802;28;20480;-86
2021/03/19 08:01:38;;;;;;;4.95;4.55;;;12.60;71.70;;;;;;5010635;28;20392;-84
2021/03/19 08:04:31;;;;;;;5.07;4.35;;;12.60;71.60;;;;;;5026898;28;20503;-85
2021/03/19 08:07:29;;;;;;;4.85;3.95;;;12.60;71.60;;;;;;5011063;28;20033;-86
2021/03/19 08:10:01;;;;;;;4.75;4.25;;;12.70;71.80;;;;;;5028386;28;20149;-85
2021/03/19 08:13:05;;;;;;;3.97;3.58;;;12.70;71.60;;;;;;5026275;28;20163;-83
2021/03/19 08:15:53;;;;;;;6.18;3.95;;;12.70;71.40;;;;;;5002416;28;20504;-83
2021/03/19 08:18:40;;;;;;;4.57;3.78;;;12.70;71.30;;;;;;5020551;28;20034;-83
2021/03/19 08:21:12;;;;;;;3.63;3.30;;;12.80;71.40;;;;;;5007844;28;20121;-82
2021/03/19 08:24:02;;;;;;;4.90;4.00;;;12.90;71.40;;;;;;5008097;28;20042;-83
2021/03/19 08:26:47;;;;;;;3.67;3.30;;;12.90;71.30;;;;;;5006655;28;20021;-83
2021/03/19 08:29:25;;;;;;;3.70;3.40;;;12.90;71.20;;;;;;5006325;28;20030;-83
2021/03/19 08:32:06;;;;;;;5.72;4.20;;;13.00;71.30;;;;;;5008049;28;20042;-86
2021/03/19 08:34:45;;;;;;;4.28;3.63;;;13.00;71.20;;;;;;4990401;28;20041;-84
2021/03/19 08:37:37;;;;;;;4.13;3.83;;;13.00;71.00;;;;;;4990762;28;20128;-85
2021/03/19 08:40:12;;;;;;;4.70;3.63;;;13.10;71.10;;;;;;5002060;28;20033;-85
2021/03/19 08:42:46;;;;;;;3.85;3.35;;;13.10;71.00;;;;;;5011730;28;20478;-84
2021/03/19 08:45:20;;;;;;;3.72;3.35;;;13.10;70.90;;;;;;5027736;28;20544;-84
2021/03/19 08:47:50;;;;;;;4.28;2.97;;;13.20;71.00;;;;;;5008977;28;20067;-82
2021/03/19 08:50:16;;;;;;;3.50;3.20;;;13.20;70.90;;;;;;5027891;28;20036;-82
2021/03/19 08:53:12;;;;;;;3.35;3.05;;;13.20;70.80;;;;;;5025156;28;20033;-90
2021/03/19 08:55:40;;;;;;;3.22;2.90;;;13.20;70.70;;;;;;5026494;28;20071;-84
2021/03/19 08:58:28;;;;;;;3.35;3.05;;;13.30;70.90;;;;;;5026049;28;20104;-82
2021/03/19 09:01:04;;;;;;;3.00;2.70;;;13.40;71.00;;;;;;5026564;28;20057;-82
2021/03/19 09:03:43;;;;;;;3.40;3.10;;;13.40;70.80;;;;;;5024936;28;20475;-82
2021/03/19 09:06:16;;;;;;;3.00;2.80;;;13.50;70.70;;;;;;5027108;28;20052;-82
2021/03/19 09:08:51;;;;;;;3.20;2.92;;;13.60;70.70;;;;;;5026769;28;20040;-82
2021/03/19 09:11:23;;;;;;;3.55;3.13;;;13.70;70.70;;;;;;5009127;28;20432;-82
2021/03/19 09:14:04;;;;;;;3.08;2.83;;;13.80;70.70;;;;;;5025288;28;20368;-82
2021/03/19 09:16:43;;;;;;;3.28;2.97;;;13.80;70.60;;;;;;5025560;28;20037;-82
2021/03/19 09:20:06;;;;;;;2.75;2.55;;;13.90;70.60;;;;;;5025092;28;20055;-80
2021/03/19 09:22:36;;;;;;;4.03;2.72;;;14.00;70.70;;;;;;4965395;28;20047;-83
2021/03/19 09:25:11;;;;;;;2.45;2.25;;;14.10;70.70;;;;;;4932615;28;20157;-78
2021/03/19 09:27:40;;;;;;;4.43;2.55;;;14.20;70.50;;;;;;4982456;28;20611;-81
2021/03/19 09:30:20;;;;;;;2.80;2.50;;;14.20;70.10;;;;;;5025213;28;20480;-81
2021/03/19 09:32:56;;;;;;;3.47;2.97;;;14.30;70.40;;;;;;5018539;28;20044;-82
2021/03/19 09:35:41;;;;;;;3.72;3.03;;;14.40;70.50;;;;;;5006683;28;20041;-80
2021/03/19 09:38:23;;;;;;;4.05;3.13;;;14.50;70.60;;;;;;5005761;28;20385;-81
2021/03/19 09:40:49;;;;;;;3.00;2.70;;;14.70;70.70;;;;;;5006639;28;20084;-83
2021/03/19 09:43:49;;;;;;;3.85;3.20;;;14.80;70.60;;;;;;5015344;28;20041;-85
2021/03/19 09:46:20;;;;;;;3.47;3.15;;;14.90;70.50;;;;;;5026684;28;20095;-83
2021/03/19 09:48:59;;;;;;;3.97;3.35;;;15.00;70.50;;;;;;5026130;28;20032;-82
2021/03/19 09:51:46;;;;;;;6.20;3.35;;;15.00;70.30;;;;;;5024993;28;20069;-83
2021/03/19 09:54:23;;;;;;;3.42;3.13;;;15.10;70.30;;;;;;5024927;28;20476;-82
2021/03/19 09:56:50;;;;;;;3.50;3.20;;;15.20;70.30;;;;;;5024908;28;20381;-81
2021/03/19 09:59:25;;;;;;;4.13;3.72;;;15.20;70.10;;;;;;5025276;28;20437;-82
2021/03/19 10:01:51;;;;;;;4.13;3.72;;;15.20;70.00;;;;;;5024247;28;20617;-81
2021/03/19 10:04:36;;;;;;;4.05;3.53;;;15.30;70.10;;;;;;5029171;28;20036;-82
2021/03/19 10:07:19;;;;;;;3.83;3.53;;;15.30;69.90;;;;;;5031027;28;20038;-82
2021/03/19 10:09:48;;;;;;;5.38;3.05;;;15.30;69.80;;;;;;4998210;28;20507;-82
2021/03/19 10:12:22;;;;;;;5.38;3.67;;;15.30;69.70;;;;;;5030547;28;20053;-80
2021/03/19 10:14:53;;;;;;;3.47;3.10;;;15.40;69.80;;;;;;5031533;28;20662;-82
2021/03/19 10:17:24;;;;;;;4.47;3.95;;;15.40;69.60;;;;;;5014324;28;20033;-80
2021/03/19 10:19:57;;;;;;;5.53;3.42;;;15.40;69.50;;;;;;5011954;28;20065;-80
2021/03/19 10:22:42;;;;;;;4.00;3.33;;;15.50;69.60;;;;;;5012454;28;20123;-81
2021/03/19 10:25:18;;;;;;;4.50;3.42;;;15.60;69.70;;;;;;5012446;28;20030;-81
2021/03/19 10:27:46;;;;;;;3.78;3.30;;;15.60;69.50;;;;;;5013402;28;20040;-80
2021/03/19 10:30:19;;;;;;;6.25;3.45;;;15.70;69.60;;;;;;5010861;28;20485;-81
2021/03/19 10:32:46;;;;;;;3.80;3.15;;;15.70;69.30;;;;;;5012253;28;20113;-81
2021/03/19 10:35:19;;;;;;;3.65;3.35;;;15.80;69.40;;;;;;5012986;28;20025;-80
2021/03/19 10:37:52;;;;;;;5.47;3.78;;;15.80;69.30;;;;;;5011237;28;20049;-81
2021/03/19 10:40:28;;;;;;;3.75;3.35;;;15.90;69.30;;;;;;5011222;28;20022;-80
2021/03/19 10:43:18;;;;;;;3.60;3.25;;;16.00;69.40;;;;;;4994845;28;20038;-80
2021/03/19 10:45:54;;;;;;;4.00;3.67;;;16.00;69.20;;;;;;5021525;28;20068;-79
2021/03/19 10:48:27;;;;;;;3.30;3.00;;;16.10;69.10;;;;;;5023589;28;20548;-79
2021/03/19 10:51:15;;;;;;;4.00;3.50;;;16.20;69.10;;;;;;5010828;28;20057;-79
2021/03/19 10:53:59;;;;;;;3.40;2.97;;;16.30;69.10;;;;;;5010882;28;20465;-80
2021/03/19 10:56:25;;;;;;;;;;;16.40;69.10;;;;;;4994886;28;20041;-80
2021/03/19 10:59:08;;;;;;;3.17;2.88;;;16.50;69.20;;;;;;5031980;28;19909;-80
2021/03/19 11:01:40;;;;;;;3.40;3.10;;;16.60;69.10;;;;;;5014775;28;20079;-81
2021/03/19 11:04:35;;;;;;;3.97;3.00;;;16.60;68.80;;;;;;5030998;28;20523;-81
2021/03/19 11:07:18;;;;;;;;;;;16.70;68.90;;;;;;4987389;28;20502;-82
2021/03/19 11:10:03;;;;;;;3.35;2.40;;;16.80;69.10;;;;;;5030641;28;19913;-81
2021/03/19 11:12:58;;;;;;;4.13;3.38;;;16.80;68.80;;;;;;5030028;28;20055;-81
2021/03/19 11:15:30;;;;;;;3.08;2.78;;;16.90;68.70;;;;;;4987070;28;20091;-79
2021/03/19 11:18:19;;;;;;;4.57;2.85;;;16.90;68.50;;;;;;5026902;28;20053;-79
2021/03/19 11:20:48;;;;;;;3.05;2.75;;;16.90;67.80;;;;;;5028864;28;20021;-76
2021/03/19 11:23:21;;;;;;;3.47;3.13;;;16.80;67.30;;;;;;5028528;28;20041;-77
2021/03/19 11:25:49;;;;;;;4.20;2.88;;;16.70;66.50;;;;;;5028784;28;20114;-81
2021/03/19 11:28:38;;;;;;;3.53;3.22;;;16.60;66.50;;;;;;5027627;28;20025;-80
2021/03/19 11:31:17;;;;;;;4.68;2.90;;;16.60;66.10;;;;;;5027442;28;20144;-79
2021/03/19 11:33:56;;;;;;;3.30;3.00;;;16.80;66.30;;;;;;5028618;28;20037;-80
2021/03/19 11:36:23;;;;;;;4.30;3.33;;;16.80;65.80;;;;;;5027125;28;20029;-80
2021/03/19 11:38:50;;;;;;;3.47;2.90;;;16.80;65.70;;;;;;5028679;28;20250;-80
2021/03/19 11:41:28;;;;;;;5.07;2.97;;;16.80;65.60;;;;;;5029101;28;20384;-79
2021/03/19 11:43:55;;;;;;;4.10;3.22;;;16.70;65.10;;;;;;5028148;28;20431;-79
2021/03/19 11:46:22;;;;;;;4.00;3.58;;;16.70;65.20;;;;;;5027350;28;20500;-79
2021/03/19 11:48:49;;;;;;;2.75;2.55;;;16.60;65.10;;;;;;5027914;28;20558;-79
2021/03/19 11:51:18;;;;;;;3.13;2.83;;;16.60;65.20;;;;;;5028237;28;20060;-80
2021/03/19 11:53:45;;;;;;;3.38;3.08;;;16.60;65.20;;;;;;5027539;28;20061;-79
2021/03/19 11:56:13;;;;;;;4.32;2.78;;;16.60;65.10;;;;;;5026701;28;20051;-80
2021/03/19 11:58:40;;;;;;;2.95;2.60;;;16.50;64.90;;;;;;5026634;28;20099;-80
2021/03/19 12:01:07;;;;;;;6.28;2.90;;;16.50;65.00;;;;;;5026786;28;20052;-80
2021/03/19 12:03:35;;;;;;;2.95;2.75;;;16.50;64.90;;;;;;5026401;28;20045;-80
2021/03/19 12:06:02;;;;;;;2.97;2.67;;;16.50;64.90;;;;;;5014266;28;20053;-80
2021/03/19 12:08:33;;;;;;;2.80;2.45;;;16.50;64.90;;;;;;5022763;28;20034;-82
2021/03/19 12:11:00;;;;;;;3.13;2.83;;;16.50;64.90;;;;;;5028656;28;20056;-81
2021/03/19 12:13:27;;;;;;;4.75;2.75;;;16.50;64.80;;;;;;5028311;28;20083;-81
2021/03/19 12:15:53;;;;;;;3.05;2.75;;;16.50;64.80;;;;;;5012392;28;20045;-81
2021/03/19 12:18:22;;;;;;;3.63;3.17;;;16.60;65.00;;;;;;4995084;28;20495;-81
2021/03/19 12:20:49;;;;;;;3.25;2.95;;;16.60;65.00;;;;;;5026376;28;20041;-82
2021/03/19 12:23:15;;;;;;;3.20;2.90;;;16.60;64.90;;;;;;5030008;28;20090;-81
2021/03/19 12:25:42;;;;;;;2.95;2.55;;;16.70;65.00;;;;;;5026612;28;20851;-82
2021/03/19 12:28:11;;;;;;;3.35;2.83;;;16.70;64.90;;;;;;5026250;28;20488;-81
2021/03/19 12:30:37;;;;;;;4.32;3.20;;;16.70;64.80;;;;;;5025741;28;20079;-83
2021/03/19 12:33:05;;;;;;;5.28;2.88;;;16.70;64.80;;;;;;5026242;28;20167;-82
2021/03/19 12:35:31;;;;;;;3.95;2.90;;;16.70;64.80;;;;;;5027331;28;20033;-82
2021/03/19 12:37:58;;;;;;;6.00;2.53;;;16.80;65.00;;;;;;5025773;28;20032;-83
2021/03/19 12:40:26;;;;;;;3.42;3.13;;;16.80;65.10;;;;;;5009567;28;20025;-84
2021/03/19 12:42:52;;;;;;;3.28;2.97;;;17.00;65.30;;;;;;5026720;28;20167;-82
2021/03/19 12:45:22;;;;;;;2.95;2.63;;;17.10;65.30;;;;;;5026020;28;20040;-82
2021/03/19 12:47:48;;;;;;;3.67;3.30;;;17.20;65.40;;;;;;5008952;28;20029;-82
2021/03/19 12:50:14;;;;;;;2.97;2.70;;;17.30;65.40;;;;;;5009687;28;20026;-81
2021/03/19 12:52:40;;;;;;;3.40;3.10;;;17.50;65.60;;;;;;5025229;28;20033;-81
2021/03/19 12:55:07;;;;;;;3.22;3.00;;;17.60;65.50;;;;;;5027036;28;20464;-82
2021/03/19 12:57:33;;;;;;;3.25;2.95;;;17.70;65.50;;;;;;5027143;28;20550;-83
2021/03/19 12:59:59;;;;;;;3.40;3.10;;;17.70;65.40;;;;;;5009476;28;20219;-83
2021/03/19 13:02:25;;;;;;;4.28;3.88;;;17.80;65.60;;;;;;5025672;28;20067;-82
2021/03/19 13:04:51;;;;;;;4.78;3.28;;;17.90;65.60;;;;;;5025431;28;20047;-85
2021/03/19 13:07:17;;;;;;;4.35;3.65;;;18.00;65.60;;;;;;5025402;28;20036;-87
2021/03/19 13:09:43;;;;;;;3.70;3.10;;;18.10;65.60;;;;;;5025213;28;20120;-83
2021/03/19 13:12:09;;;;;;;4.20;3.80;;;18.20;65.70;;;;;;5026493;28;20067;-84
2021/03/19 13:14:35;;;;;;;3.83;3.40;;;18.20;65.50;;;;;;5009040;28;20701;-84
2021/03/19 13:17:03;;;;;;;4.10;3.70;;;18.30;65.60;;;;;;5023943;28;20120;-82
2021/03/19 13:19:29;;;;;;;4.40;4.00;;;18.40;65.70;;;;;;5026425;28;20029;-82
2021/03/19 13:21:56;;;;;;;3.60;3.22;;;18.50;65.70;;;;;;5026728;28;20037;-83